createdAt,value
2018-05-31T00:02:06.878Z,25.65
2018-05-31T00:04:39.405Z,27.37
2018-05-31T00:07:11.948Z,30.35
2018-05-31T00:09:44.480Z,32.63
2018-05-31T00:12:17.031Z,32.53
2018-05-31T00:14:49.568Z,32.75
2018-05-31T00:17:22.934Z,30.20
2018-05-31T00:19:55.448Z,30.62
2018-05-31T00:22:27.994Z,30.60
2018-05-31T00:25:00.527Z,19.48
2018-05-31T00:27:33.068Z,35.50
2018-05-31T00:30:05.610Z,23.85
2018-05-31T00:32:38.157Z,23.12
2018-05-31T00:35:10.721Z,29.17
2018-05-31T00:37:43.287Z,28.98
2018-05-31T00:40:15.806Z,23.33
2018-05-31T00:42:48.354Z,24.63
2018-05-31T00:45:20.885Z,26.98
2018-05-31T00:47:53.425Z,29.77
2018-05-31T00:50:25.944Z,28.25
2018-05-31T00:52:58.497Z,26.77
2018-05-31T00:55:43.018Z,26.52
2018-05-31T00:58:15.523Z,26.20
2018-05-31T01:00:48.078Z,29.05
2018-05-31T01:03:22.213Z,30.73
2018-05-31T01:05:54.761Z,32.55
2018-05-31T01:08:27.277Z,30.40
2018-05-31T01:10:59.820Z,29.73
2018-05-31T01:13:32.329Z,29.58
2018-05-31T01:16:04.876Z,28.90
2018-05-31T01:18:37.401Z,30.90
2018-05-31T01:21:09.947Z,31.98
2018-05-31T01:23:42.482Z,31.00
2018-05-31T01:26:15.039Z,33.45
2018-05-31T01:28:47.564Z,27.70
2018-05-31T01:31:20.115Z,29.35
2018-05-31T01:33:53.233Z,29.92
2018-05-31T01:36:25.785Z,32.88
2018-05-31T01:38:58.320Z,62.75
2018-05-31T01:41:30.861Z,27.77
2018-05-31T01:44:03.385Z,27.52
2018-05-31T01:46:35.926Z,39.45
2018-05-31T01:49:08.458Z,28.87
2018-05-31T01:51:41.004Z,28.27
2018-05-31T01:54:13.545Z,26.42
2018-05-31T01:56:46.099Z,28.40
2018-05-31T01:59:18.616Z,32.35
2018-05-31T02:01:51.792Z,32.53
2018-05-31T02:04:24.312Z,31.35
2018-05-31T02:06:56.840Z,28.05
2018-05-31T02:09:29.354Z,30.33
2018-05-31T02:12:01.901Z,32.40
2018-05-31T02:14:34.442Z,35.50
2018-05-31T02:17:06.992Z,29.10
2018-05-31T02:19:39.512Z,30.67
2018-05-31T02:22:12.067Z,29.15
2018-05-31T02:24:44.596Z,32.58
2018-05-31T02:27:17.179Z,31.55
2018-05-31T02:29:49.718Z,29.52
2018-05-31T02:32:22.977Z,30.20
2018-05-31T02:34:55.507Z,32.10
2018-05-31T02:37:28.069Z,27.45
2018-05-31T02:40:00.594Z,26.87
2018-05-31T02:42:33.148Z,28.60
2018-05-31T02:45:05.682Z,29.65
2018-05-31T02:47:38.215Z,33.22
2018-05-31T02:50:10.790Z,29.77
2018-05-31T02:52:43.346Z,52.62
2018-05-31T02:55:15.865Z,30.88
2018-05-31T02:57:48.408Z,27.45
2018-05-31T03:00:20.958Z,23.62
2018-05-31T03:02:53.504Z,19.80
2018-05-31T03:05:26.019Z,18.15
2018-05-31T03:07:58.560Z,77.78
2018-05-31T03:10:31.078Z,22.75
2018-05-31T03:13:04.519Z,21.42
2018-05-31T03:15:37.045Z,22.20
2018-05-31T03:18:09.593Z,23.65
2018-05-31T03:20:42.124Z,23.58
2018-05-31T03:23:14.666Z,24.65
2018-05-31T03:25:47.188Z,26.08
2018-05-31T03:28:19.739Z,25.12
2018-05-31T03:30:52.996Z,38.80
2018-05-31T03:33:25.539Z,25.80
2018-05-31T03:35:58.051Z,22.77
2018-05-31T03:38:30.595Z,21.42
2018-05-31T03:41:03.121Z,22.27
2018-05-31T03:43:35.665Z,19.02
2018-05-31T03:46:08.176Z,28.30
2018-05-31T03:48:40.720Z,19.95
2018-05-31T03:51:13.234Z,22.25
2018-05-31T03:53:45.772Z,20.08
2018-05-31T03:56:26.647Z,20.33
2018-05-31T03:58:59.196Z,30.37
2018-05-31T04:01:31.768Z,23.52
2018-05-31T04:04:04.284Z,22.05
2018-05-31T04:06:36.815Z,24.33
2018-05-31T04:09:09.349Z,22.48
2018-05-31T04:11:41.879Z,29.00
2018-05-31T04:14:14.417Z,24.42
2018-05-31T04:16:46.950Z,24.60
2018-05-31T04:19:19.489Z,23.42
2018-05-31T04:21:52.008Z,24.65
2018-05-31T04:24:24.543Z,27.33
2018-05-31T04:26:57.155Z,25.30
2018-05-31T04:29:29.700Z,21.58
2018-05-31T04:32:02.224Z,22.85
2018-05-31T04:34:34.768Z,24.35
2018-05-31T04:37:07.296Z,25.75
2018-05-31T04:39:39.824Z,23.45
2018-05-31T04:42:12.367Z,23.55
2018-05-31T04:44:44.901Z,26.12
2018-05-31T04:47:17.520Z,23.58
2018-05-31T04:49:50.040Z,25.30
2018-05-31T04:52:23.152Z,23.62
2018-05-31T04:54:55.676Z,26.37
2018-05-31T04:57:28.215Z,24.50
2018-05-31T05:00:00.748Z,29.75
2018-05-31T05:02:33.309Z,33.10
2018-05-31T05:05:05.836Z,31.33
2018-05-31T05:07:38.377Z,29.33
2018-05-31T05:10:10.920Z,30.27
2018-05-31T05:12:43.460Z,35.20
2018-05-31T05:15:15.973Z,33.88
2018-05-31T05:17:48.512Z,31.85
2018-05-31T05:20:21.282Z,34.35
2018-05-31T05:22:53.829Z,35.50
2018-05-31T05:25:26.363Z,39.08
2018-05-31T05:27:58.925Z,35.92
2018-05-31T05:30:31.437Z,36.00
2018-05-31T05:33:03.975Z,38.03
2018-05-31T05:35:36.505Z,38.03
2018-05-31T05:38:09.067Z,40.45
2018-05-31T05:40:41.593Z,41.30
2018-05-31T05:43:14.131Z,41.78
2018-05-31T05:45:46.645Z,40.58
2018-05-31T05:48:19.200Z,39.58
2018-05-31T05:50:52.188Z,41.13
2018-05-31T05:53:24.727Z,41.50
2018-05-31T05:55:57.258Z,37.70
2018-05-31T05:58:29.812Z,37.85
2018-05-31T06:01:02.381Z,36.97
2018-05-31T06:03:34.930Z,40.10
2018-05-31T06:06:07.461Z,40.10
2018-05-31T06:08:40.032Z,40.92
2018-05-31T06:11:12.580Z,42.53
2018-05-31T06:13:45.115Z,43.58
2018-05-31T06:16:17.650Z,38.65
2018-05-31T06:18:50.206Z,36.10
2018-05-31T06:21:23.572Z,35.15
2018-05-31T06:23:56.120Z,35.80
2018-05-31T06:26:28.701Z,29.73
2018-05-31T06:29:01.235Z,30.73
2018-05-31T06:31:33.790Z,29.05
2018-05-31T06:34:06.328Z,36.30
2018-05-31T06:36:38.870Z,30.08
2018-05-31T06:39:11.402Z,24.12
2018-05-31T06:41:43.919Z,26.15
2018-05-31T06:44:16.464Z,26.58
2018-05-31T06:46:48.984Z,28.30
2018-05-31T06:49:22.713Z,29.25
2018-05-31T06:51:55.224Z,28.40
2018-05-31T06:54:27.758Z,28.02
2018-05-31T06:57:00.296Z,28.10
2018-05-31T06:59:32.835Z,26.20
2018-05-31T07:02:05.340Z,23.35
2018-05-31T07:04:37.865Z,24.48
2018-05-31T07:07:10.402Z,24.27
2018-05-31T07:09:42.924Z,22.15
2018-05-31T07:12:15.429Z,21.37
2018-05-31T07:14:47.948Z,18.95
2018-05-31T07:17:21.307Z,20.23
2018-05-31T07:19:53.844Z,18.00
2018-05-31T07:22:26.349Z,15.15
2018-05-31T07:24:58.913Z,17.12
2018-05-31T07:27:31.429Z,16.67
2018-05-31T07:30:03.953Z,15.90
2018-05-31T07:32:36.465Z,17.85
2018-05-31T07:35:09.001Z,18.02
2018-05-31T07:37:41.537Z,19.42
2018-05-31T07:40:14.069Z,19.85
2018-05-31T07:42:46.576Z,18.40
2018-05-31T07:45:19.103Z,17.98
2018-05-31T07:47:51.978Z,20.95
2018-05-31T07:50:24.505Z,19.30
2018-05-31T07:52:57.013Z,19.45
2018-05-31T07:55:29.540Z,16.58
2018-05-31T07:58:02.102Z,14.82
2018-05-31T08:00:34.633Z,14.93
2018-05-31T08:03:07.148Z,15.20
2018-05-31T08:05:39.709Z,15.13
2018-05-31T08:08:13.061Z,15.90
2018-05-31T08:10:45.599Z,14.95
2018-05-31T08:13:18.144Z,14.48
2018-05-31T08:15:50.905Z,15.00
2018-05-31T08:18:23.443Z,14.93
2018-05-31T08:20:55.951Z,16.90
2018-05-31T08:23:28.484Z,15.20
2018-05-31T08:26:00.990Z,14.77
2018-05-31T08:28:33.522Z,15.27
2018-05-31T08:31:06.039Z,15.23
2018-05-31T08:33:38.584Z,15.65
2018-05-31T08:36:11.127Z,14.95
2018-05-31T08:38:43.652Z,14.98
2018-05-31T08:41:16.171Z,15.52
2018-05-31T08:43:48.711Z,15.60
2018-05-31T08:46:21.743Z,14.80
2018-05-31T08:48:54.272Z,14.82
2018-05-31T08:51:26.789Z,15.35
2018-05-31T08:53:59.325Z,16.33
2018-05-31T08:56:31.840Z,15.45
2018-05-31T08:59:04.365Z,14.48
2018-05-31T09:01:36.878Z,13.82
2018-05-31T09:04:09.424Z,12.57
2018-05-31T09:06:41.944Z,13.73
2018-05-31T09:09:14.549Z,12.75
2018-05-31T09:11:47.056Z,14.40
2018-05-31T09:14:19.575Z,12.98
2018-05-31T09:16:52.800Z,11.82
2018-05-31T09:19:25.327Z,12.10
2018-05-31T09:21:57.845Z,13.13
2018-05-31T09:24:30.376Z,13.23
2018-05-31T09:27:02.902Z,13.40
2018-05-31T09:29:35.439Z,13.65
2018-05-31T09:32:08.174Z,10.98
2018-05-31T09:34:40.699Z,9.50
2018-05-31T09:37:13.202Z,9.85
2018-05-31T09:39:45.722Z,10.77
2018-05-31T09:42:18.227Z,11.75
2018-05-31T09:44:51.381Z,9.68
2018-05-31T09:47:23.883Z,10.57
2018-05-31T09:49:56.408Z,10.23
2018-05-31T09:52:28.912Z,10.00
2018-05-31T09:55:01.432Z,10.75
2018-05-31T09:57:33.957Z,10.82
2018-05-31T10:00:06.483Z,10.82
2018-05-31T10:02:38.988Z,10.75
2018-05-31T10:05:11.569Z,13.75
2018-05-31T10:07:44.078Z,11.65
2018-05-31T10:10:16.613Z,11.45
2018-05-31T10:12:49.179Z,10.40
2018-05-31T10:15:22.024Z,10.43
2018-05-31T10:17:54.531Z,10.00
2018-05-31T10:20:27.072Z,11.27
2018-05-31T10:22:59.585Z,11.88
2018-05-31T10:25:32.115Z,11.52
2018-05-31T10:28:04.629Z,10.95
2018-05-31T10:30:37.149Z,10.75
2018-05-31T10:33:09.657Z,11.95
2018-05-31T10:35:42.196Z,10.25
2018-05-31T10:38:14.693Z,10.07
2018-05-31T10:40:47.208Z,10.95
2018-05-31T10:43:19.710Z,11.95
2018-05-31T10:45:52.941Z,12.13
2018-05-31T10:48:25.453Z,12.25
2018-05-31T10:50:57.975Z,11.38
2018-05-31T10:53:30.480Z,12.30
2018-05-31T10:56:03.004Z,11.20
2018-05-31T10:58:35.524Z,11.23
2018-05-31T11:01:08.048Z,12.63
2018-05-31T11:03:40.599Z,11.88
2018-05-31T11:06:13.136Z,11.73
2018-05-31T11:08:45.645Z,13.07
2018-05-31T11:11:18.456Z,12.27
2018-05-31T11:13:50.965Z,11.68
2018-05-31T11:16:23.507Z,11.55
2018-05-31T11:18:56.014Z,11.85
2018-05-31T11:21:28.567Z,12.95
2018-05-31T11:24:01.113Z,12.32
2018-05-31T11:26:33.648Z,11.88
2018-05-31T11:29:06.148Z,10.75
2018-05-31T11:31:38.668Z,10.43
2018-05-31T11:34:11.178Z,10.60
2018-05-31T11:36:43.713Z,10.70
2018-05-31T11:39:16.212Z,10.93
2018-05-31T11:41:48.745Z,10.98
2018-05-31T11:44:21.788Z,10.20
2018-05-31T11:46:54.309Z,9.80
2018-05-31T11:49:26.848Z,10.45
2018-05-31T11:51:59.381Z,10.50
2018-05-31T11:54:31.896Z,9.55
2018-05-31T11:57:04.405Z,9.55
2018-05-31T11:59:36.927Z,10.52
2018-05-31T12:02:09.427Z,9.98
2018-05-31T12:04:41.944Z,9.73
2018-05-31T12:07:14.445Z,9.88
2018-05-31T12:09:46.980Z,10.13
2018-05-31T12:12:19.499Z,10.07
2018-05-31T12:14:52.040Z,10.35
2018-05-31T12:17:24.630Z,10.27
2018-05-31T12:19:57.101Z,9.65
2018-05-31T12:22:29.623Z,10.13
2018-05-31T12:25:02.157Z,9.43
2018-05-31T12:27:34.663Z,9.38
2018-05-31T12:30:07.185Z,9.38
2018-05-31T12:32:39.692Z,9.18
2018-05-31T12:35:12.219Z,8.80
2018-05-31T12:37:44.731Z,8.30
2018-05-31T12:40:17.279Z,10.35
2018-05-31T12:42:49.784Z,8.73
2018-05-31T12:45:23.095Z,10.20
2018-05-31T12:47:55.628Z,8.48
2018-05-31T12:50:28.154Z,8.07
2018-05-31T12:53:00.652Z,8.77
2018-05-31T12:55:33.188Z,8.52
2018-05-31T12:58:05.686Z,7.87
2018-05-31T13:00:38.203Z,8.68
2018-05-31T13:03:10.725Z,8.13
2018-05-31T13:05:43.263Z,9.13
2018-05-31T13:08:15.764Z,8.65
2018-05-31T13:10:48.291Z,8.40
2018-05-31T13:13:22.039Z,8.10
2018-05-31T13:15:56.732Z,10.68
2018-05-31T13:18:29.300Z,8.75
2018-05-31T13:21:01.834Z,9.43
2018-05-31T13:23:34.350Z,9.13
2018-05-31T13:26:06.873Z,8.75
2018-05-31T13:28:39.384Z,8.43
2018-05-31T13:31:11.918Z,10.18
2018-05-31T13:33:44.435Z,8.13
2018-05-31T13:36:16.960Z,9.88
2018-05-31T13:38:49.466Z,8.52
2018-05-31T13:41:21.983Z,9.73
2018-05-31T13:43:54.497Z,8.50
2018-05-31T13:46:27.040Z,8.70
2018-05-31T13:48:59.722Z,7.55
2018-05-31T13:51:32.262Z,8.25
2018-05-31T13:54:04.758Z,8.45
2018-05-31T13:56:37.282Z,8.05
2018-05-31T13:59:09.787Z,8.20
2018-05-31T14:01:42.319Z,10.23
2018-05-31T14:04:14.821Z,8.98
2018-05-31T14:06:47.347Z,8.90
2018-05-31T14:09:19.952Z,7.70
2018-05-31T14:11:53.061Z,8.18
2018-05-31T14:14:25.568Z,7.78
2018-05-31T14:16:58.091Z,9.05
2018-05-31T14:19:30.605Z,7.72
2018-05-31T14:22:03.128Z,7.65
2018-05-31T14:24:35.632Z,8.00
2018-05-31T14:27:08.147Z,8.65
2018-05-31T14:29:40.636Z,9.75
2018-05-31T14:32:13.152Z,8.48
2018-05-31T14:34:45.658Z,7.68
2018-05-31T14:37:18.186Z,7.47
2018-05-31T14:39:50.974Z,7.93
2018-05-31T14:42:23.519Z,8.95
2018-05-31T14:44:56.028Z,8.00
2018-05-31T14:47:28.575Z,8.00
2018-05-31T14:50:01.081Z,8.50
2018-05-31T14:52:33.607Z,7.87
2018-05-31T14:55:06.120Z,8.15
2018-05-31T14:57:38.642Z,9.40
2018-05-31T15:00:11.179Z,8.77
2018-05-31T15:02:43.716Z,7.32
2018-05-31T15:05:16.221Z,8.52
2018-05-31T15:07:48.754Z,9.48
2018-05-31T15:10:21.923Z,8.07
2018-05-31T15:12:54.479Z,8.05
2018-05-31T15:15:27.004Z,7.53
2018-05-31T15:17:59.550Z,7.72
2018-05-31T15:20:32.071Z,7.80
2018-05-31T15:23:04.578Z,9.05
2018-05-31T15:25:37.123Z,7.72
2018-05-31T15:28:09.637Z,8.18
2018-05-31T15:30:42.167Z,8.77
2018-05-31T15:33:14.672Z,8.73
2018-05-31T15:35:47.223Z,10.15
2018-05-31T15:38:19.724Z,8.30
2018-05-31T15:40:52.877Z,7.90
2018-05-31T15:43:25.410Z,8.18
2018-05-31T15:45:57.936Z,7.80
2018-05-31T15:48:30.433Z,7.72
2018-05-31T15:51:02.956Z,6.05
2018-05-31T15:53:35.470Z,8.15
2018-05-31T15:56:08.005Z,7.60
2018-05-31T15:58:40.598Z,8.02
2018-05-31T16:01:13.153Z,7.97
2018-05-31T16:03:45.670Z,8.02
2018-05-31T16:06:18.194Z,7.65
2018-05-31T16:08:50.963Z,7.78
2018-05-31T16:11:23.502Z,8.35
2018-05-31T16:13:56.008Z,8.50
2018-05-31T16:16:28.533Z,8.40
2018-05-31T16:19:01.049Z,8.20
2018-05-31T16:21:33.580Z,8.75
2018-05-31T16:24:06.081Z,10.27
2018-05-31T16:26:38.614Z,8.05
2018-05-31T16:29:11.139Z,8.95
2018-05-31T16:31:43.660Z,8.00
2018-05-31T16:34:16.380Z,8.48
2018-05-31T16:36:48.938Z,9.23
2018-05-31T16:39:22.300Z,8.75
2018-05-31T16:41:54.824Z,9.63
2018-05-31T16:44:27.338Z,8.68
2018-05-31T16:46:59.867Z,8.88
2018-05-31T16:49:32.374Z,9.18
2018-05-31T16:52:04.904Z,9.18
2018-05-31T16:54:37.454Z,9.63
2018-05-31T16:57:09.976Z,10.43
2018-05-31T16:59:42.479Z,10.65
2018-05-31T17:02:15.011Z,8.88
2018-05-31T17:04:47.553Z,8.73
2018-05-31T17:07:20.071Z,9.93
2018-05-31T17:09:53.128Z,9.15
2018-05-31T17:12:25.660Z,9.45
2018-05-31T17:14:58.569Z,9.43
2018-05-31T17:17:31.155Z,9.90
2018-05-31T17:20:03.790Z,9.50
2018-05-31T17:22:36.563Z,10.38
2018-05-31T17:25:09.275Z,9.50
2018-05-31T17:27:41.934Z,9.88
2018-05-31T17:30:14.664Z,10.30
2018-05-31T17:32:47.325Z,9.45
2018-05-31T17:35:19.975Z,9.90
2018-05-31T17:37:53.701Z,10.98
2018-05-31T17:40:26.566Z,10.10
2018-05-31T17:42:59.399Z,10.35
2018-05-31T17:45:32.022Z,10.10
2018-05-31T17:48:04.797Z,10.73
2018-05-31T17:50:37.592Z,12.70
2018-05-31T17:53:10.284Z,11.23
2018-05-31T17:55:42.925Z,14.50
2018-05-31T17:58:15.657Z,11.12
2018-05-31T18:00:48.738Z,10.95
2018-05-31T18:03:21.784Z,12.43
2018-05-31T18:05:54.352Z,12.35
2018-05-31T18:08:27.454Z,13.02
2018-05-31T18:11:00.237Z,13.55
2018-05-31T18:13:33.011Z,15.07
2018-05-31T18:16:05.869Z,12.90
2018-05-31T18:18:38.567Z,12.77
2018-05-31T18:21:11.235Z,12.40
2018-05-31T18:23:43.891Z,12.18
2018-05-31T18:26:16.547Z,12.35
2018-05-31T18:28:49.428Z,11.85
2018-05-31T18:31:22.142Z,12.50
2018-05-31T18:33:54.922Z,11.52
2018-05-31T18:36:27.562Z,12.45
2018-05-31T18:39:01.309Z,12.50
2018-05-31T18:41:34.059Z,13.25
2018-05-31T18:44:06.625Z,13.38
2018-05-31T18:46:39.261Z,13.00
2018-05-31T18:49:11.886Z,14.63
2018-05-31T18:51:44.420Z,13.75
2018-05-31T18:54:16.926Z,13.80
2018-05-31T18:56:49.458Z,13.85
2018-05-31T18:59:21.971Z,16.30
2018-05-31T19:01:54.496Z,17.70
2018-05-31T19:04:27.004Z,16.45
2018-05-31T19:06:59.590Z,16.75
2018-05-31T19:09:36.912Z,15.63
2018-05-31T19:12:09.478Z,16.55
2018-05-31T19:14:42.025Z,16.98
2018-05-31T19:17:14.556Z,15.60
2018-05-31T19:19:52.656Z,15.48
2018-05-31T19:22:25.182Z,17.00
2018-05-31T19:25:03.236Z,16.10
2018-05-31T19:27:35.756Z,15.68
2018-05-31T19:30:13.967Z,14.70
2018-05-31T19:32:46.505Z,15.68
2018-05-31T19:35:24.503Z,17.05
2018-05-31T19:37:57.037Z,15.30
2018-05-31T19:40:29.545Z,15.52
2018-05-31T19:43:07.608Z,16.85
2018-05-31T19:45:40.173Z,15.60
2018-05-31T19:48:12.700Z,16.65
2018-05-31T19:50:45.214Z,16.37
2018-05-31T19:53:23.351Z,15.85
2018-05-31T19:55:56.069Z,17.55
2018-05-31T19:58:34.377Z,17.42
2018-05-31T20:01:12.662Z,20.35
2018-05-31T20:03:45.224Z,18.15
2018-05-31T20:06:17.776Z,17.30
2018-05-31T20:08:50.326Z,17.20
2018-05-31T20:11:23.910Z,17.00
2018-05-31T20:13:56.432Z,18.08
2018-05-31T20:16:28.938Z,16.80
2018-05-31T20:19:01.534Z,19.23
2018-05-31T20:21:34.011Z,19.12
2018-05-31T20:24:06.712Z,18.55
2018-05-31T20:26:39.229Z,18.35
2018-05-31T20:29:11.764Z,17.90
2018-05-31T20:31:44.279Z,18.27
2018-05-31T20:34:16.826Z,17.65
2018-05-31T20:36:49.343Z,19.23
2018-05-31T20:39:21.875Z,17.25
2018-05-31T20:41:54.388Z,17.37
2018-05-31T20:44:26.912Z,17.83
2018-05-31T20:46:59.421Z,17.77
2018-05-31T20:49:31.956Z,17.95
2018-05-31T20:52:04.460Z,17.02
2018-05-31T20:54:36.992Z,18.27
2018-05-31T20:57:09.504Z,18.37
2018-05-31T20:59:42.032Z,20.83
2018-05-31T21:02:14.533Z,18.02
2018-05-31T21:04:47.062Z,17.60
2018-05-31T21:07:19.571Z,18.33
2018-05-31T21:09:52.982Z,17.70
2018-05-31T21:12:25.489Z,18.83
2018-05-31T21:14:58.024Z,20.17
2018-05-31T21:17:30.538Z,18.17
2018-05-31T21:20:03.128Z,17.62
2018-05-31T21:22:35.640Z,19.60
2018-05-31T21:25:08.180Z,17.33
2018-05-31T21:27:40.711Z,19.40
2018-05-31T21:30:13.233Z,19.10
2018-05-31T21:32:45.765Z,19.05
2018-05-31T21:35:18.272Z,18.10
2018-05-31T21:37:50.928Z,19.67
2018-05-31T21:40:23.448Z,17.73
2018-05-31T21:42:55.969Z,18.92
2018-05-31T21:45:28.484Z,18.27
2018-05-31T21:48:01.017Z,18.00
2018-05-31T21:50:33.528Z,17.08
2018-05-31T21:53:06.053Z,17.65
2018-05-31T21:55:38.567Z,17.55
2018-05-31T21:58:11.100Z,17.58
2018-05-31T22:00:49.154Z,23.20
2018-05-31T22:03:21.937Z,17.95
2018-05-31T22:05:54.444Z,17.70
2018-05-31T22:08:26.985Z,17.73
2018-05-31T22:10:59.492Z,17.58
2018-05-31T22:13:32.032Z,18.52
2018-05-31T22:16:04.534Z,19.00
2018-05-31T22:18:37.062Z,17.30
2018-05-31T22:21:09.569Z,17.30
2018-05-31T22:23:42.096Z,19.10
2018-05-31T22:26:14.598Z,19.05
2018-05-31T22:28:47.124Z,17.80
2018-05-31T22:31:19.629Z,19.90
2018-05-31T22:33:52.944Z,18.12
2018-05-31T22:36:25.494Z,17.70
2018-05-31T22:38:58.071Z,18.40
2018-05-31T22:41:30.632Z,19.42
2018-05-31T22:44:03.161Z,17.42
2018-05-31T22:46:35.726Z,16.30
2018-05-31T22:49:08.336Z,17.08
2018-05-31T22:51:40.903Z,18.95
2018-05-31T22:54:13.453Z,17.23
2018-05-31T22:56:46.014Z,18.52
2018-05-31T22:59:18.547Z,17.45
2018-05-31T23:01:51.652Z,17.40
2018-05-31T23:04:24.186Z,17.10
2018-05-31T23:06:56.688Z,17.17
2018-05-31T23:09:29.215Z,17.98
2018-05-31T23:12:01.735Z,19.75
2018-05-31T23:14:34.270Z,18.80
2018-05-31T23:17:06.788Z,17.20
2018-05-31T23:19:39.322Z,15.70
2018-05-31T23:22:11.844Z,16.10
2018-05-31T23:24:44.367Z,17.77
2018-05-31T23:27:16.873Z,17.75
2018-05-31T23:29:49.409Z,15.20
2018-05-31T23:32:21.933Z,16.87
2018-05-31T23:34:54.463Z,15.18
2018-05-31T23:37:26.971Z,16.70
2018-05-31T23:39:59.496Z,15.98
2018-05-31T23:42:31.996Z,15.20
2018-05-31T23:45:04.532Z,16.15
2018-05-31T23:47:37.049Z,15.95
2018-05-31T23:50:09.579Z,16.05
2018-05-31T23:52:42.090Z,16.37
2018-05-31T23:55:14.622Z,17.00
2018-05-31T23:57:47.128Z,16.20
